Time,TemperatureF,DewpointF,PressureIn,WindDirection,WindDirectionDegrees,WindSpeedMPH,WindSpeedGustMPH,Humidity,HourlyPrecipIn,Conditions,Clouds,dailyrainin,SoftwareType,DateUTC
2013-01-25 00:05:00,47.2,46.9,30.12,West,277,0.0,0.0,99,0.00,,,0.00,Wunderground v.1.15,2013-01-25 08:05:00,
2013-01-25 00:10:00,47.2,46.9,30.12,West,277,0.0,0.0,99,0.00,,,0.00,Wunderground v.1.15,2013-01-25 08:10:00,
2013-01-25 00:20:00,47.2,46.9,30.12,West,277,0.0,0.0,99,0.00,,,0.00,Wunderground v.1.15,2013-01-25 08:20:00,
2013-01-25 00:30:00,47.0,46.7,30.12,West,277,0.0,0.0,99,0.00,,,0.00,Wunderground v.1.15,2013-01-25 08:30:00,
2013-01-25 00:40:00,47.0,46.7,30.11,West,277,0.0,0.0,99,0.00,,,0.00,Wunderground v.1.15,2013-01-25 08:40:00,
2013-01-25 00:50:00,46.9,46.6,30.12,West,277,0.0,0.0,99,0.00,,,0.00,Wunderground v.1.15,2013-01-25 08:50:00,
2013-01-25 01:05:00,46.8,46.5,30.12,West,277,0.0,0.0,99,0.00,,,0.00,Wunderground v.1.15,2013-01-25 09:05:00,
2013-01-25 01:10:00,46.7,46.4,30.12,West,277,0.0,1.0,99,0.00,,,0.00,Wunderground v.1.15,2013-01-25 09:10:00,
2013-01-25 01:15:00,46.6,46.3,30.12,West,277,0.0,0.0,99,0.00,,,0.00,Wunderground v.1.15,2013-01-25 09:15:00,
2013-01-25 01:25:00,46.5,46.2,30.12,West,277,0.0,0.0,99,0.00,,,0.00,Wunderground v.1.15,2013-01-25 09:25:00,
2013-01-25 01:35:00,46.4,46.1,30.12,West,277,0.0,0.0,99,0.00,,,0.00,Wunderground v.1.15,2013-01-25 09:35:00,
2013-01-25 01:45:00,46.4,46.1,30.12,West,277,0.0,0.0,99,0.00,,,0.00,Wunderground v.1.15,2013-01-25 09:45:00,
2013-01-25 01:55:00,46.2,45.9,30.11,West,277,0.0,0.0,99,0.00,,,0.00,Wunderground v.1.15,2013-01-25 09:55:00,
2013-01-25 02:05:00,46.1,45.8,30.11,West,277,0.0,0.0,99,0.00,,,0.00,Wunderground v.1.15,2013-01-25 10:05:00,
2013-01-25 02:10:00,46.0,45.7,30.11,SSE,161,0.0,0.0,99,0.00,,,0.00,Wunderground v.1.15,2013-01-25 10:10:00,
2013-01-25 02:20:00,45.9,45.6,30.11,SSE,161,0.0,0.0,99,0.00,,,0.01,Wunderground v.1.15,2013-01-25 10:20:00,
2013-01-25 02:30:00,45.9,45.6,30.11,SSE,161,0.0,0.0,99,0.00,,,0.01,Wunderground v.1.15,2013-01-25 10:30:00,
2013-01-25 02:40:00,45.9,45.6,30.11,SSE,161,0.0,0.0,99,0.00,,,0.01,Wunderground v.1.15,2013-01-25 10:40:00,
2013-01-25 02:45:00,45.9,45.6,30.11,SSE,161,0.0,0.0,99,0.00,,,0.01,Wunderground v.1.15,2013-01-25 10:45:00,
2013-01-25 02:55:00,46.0,45.7,30.11,South,171,0.0,0.0,99,0.00,,,0.01,Wunderground v.1.15,2013-01-25 10:55:00,
2013-01-25 03:05:00,46.1,45.8,30.10,South,171,0.0,0.0,99,0.00,,,0.02,Wunderground v.1.15,2013-01-25 11:05:00,
2013-01-25 03:10:00,46.1,45.8,30.10,South,171,0.0,0.0,99,0.00,,,0.02,Wunderground v.1.15,2013-01-25 11:10:00,
2013-01-25 03:20:00,46.1,45.8,30.10,South,171,0.0,0.0,99,0.00,,,0.02,Wunderground v.1.15,2013-01-25 11:20:00,
2013-01-25 03:25:00,46.1,45.8,30.09,South,171,0.0,0.0,99,0.00,,,0.02,Wunderground v.1.15,2013-01-25 11:25:00,
2013-01-25 03:35:00,46.2,45.9,30.09,South,186,0.0,0.0,99,0.00,,,0.02,Wunderground v.1.15,2013-01-25 11:35:00,
2013-01-25 03:45:00,46.2,45.9,30.09,SSW,209,0.0,0.0,99,0.00,,,0.02,Wunderground v.1.15,2013-01-25 11:45:00,
2013-01-25 03:50:00,46.3,46.0,30.09,SSW,209,0.0,0.0,99,0.00,,,0.02,Wunderground v.1.15,2013-01-25 11:50:00,
2013-01-25 04:05:00,46.2,45.9,30.09,SSW,209,0.0,0.0,99,0.00,,,0.02,Wunderground v.1.15,2013-01-25 12:05:00,
2013-01-25 04:11:00,46.1,45.8,30.09,SSW,209,0.0,0.0,99,0.00,,,0.02,Wunderground v.1.15,2013-01-25 12:11:00,
2013-01-25 04:20:00,46.0,46.0,30.10,SSW,209,0.0,0.0,100,0.00,,,0.03,Wunderground v.1.15,2013-01-25 12:20:00,
2013-01-25 04:30:00,45.9,45.9,30.10,SSW,209,0.0,0.0,100,0.13,,,0.05,Wunderground v.1.15,2013-01-25 12:30:00,
2013-01-25 04:40:00,45.9,45.9,30.09,SSW,209,0.0,0.0,100,0.07,,,0.06,Wunderground v.1.15,2013-01-25 12:40:00,
2013-01-25 04:50:00,45.9,45.9,30.09,SSW,209,0.0,0.0,100,0.16,,,0.08,Wunderground v.1.15,2013-01-25 12:50:00,
2013-01-25 04:55:00,45.9,45.9,30.09,SSW,209,0.0,0.0,100,0.14,,,0.09,Wunderground v.1.15,2013-01-25 12:55:00,
2013-01-25 05:05:00,45.9,45.9,30.09,SSW,209,0.0,0.0,100,0.06,,,0.11,Wunderground v.1.15,2013-01-25 13:05:00,
2013-01-25 05:15:00,45.8,45.8,30.08,SSW,209,0.0,0.0,100,0.06,,,0.11,Wunderground v.1.15,2013-01-25 13:15:00,
2013-01-25 05:25:00,45.8,45.8,30.08,SSW,209,0.0,0.0,100,0.00,,,0.11,Wunderground v.1.15,2013-01-25 13:25:00,
2013-01-25 05:35:00,46.0,46.0,30.08,SSW,209,0.0,0.0,100,0.00,,,0.11,Wunderground v.1.15,2013-01-25 13:35:00,
2013-01-25 05:45:00,46.1,46.1,30.07,SSW,209,0.0,0.0,100,0.00,,,0.11,Wunderground v.1.15,2013-01-25 13:45:00,
2013-01-25 05:55:00,46.3,46.3,30.07,SSW,209,0.0,0.0,100,0.00,,,0.11,Wunderground v.1.15,2013-01-25 13:55:00,
2013-01-25 06:05:00,46.5,46.5,30.07,SSW,209,0.0,0.0,100,0.00,,,0.11,Wunderground v.1.15,2013-01-25 14:05:00,
2013-01-25 06:15:00,46.6,46.6,30.07,SSW,209,0.0,0.0,100,0.00,,,0.11,Wunderground v.1.15,2013-01-25 14:15:00,
2013-01-25 06:25:00,46.9,46.9,30.06,SSW,209,0.0,0.0,100,0.00,,,0.11,Wunderground v.1.15,2013-01-25 14:25:00,
2013-01-25 06:35:00,46.5,46.5,30.07,SSW,209,0.0,1.0,100,0.00,,,0.11,Wunderground v.1.15,2013-01-25 14:35:00,
2013-01-25 06:45:00,46.4,46.4,30.07,SSW,209,0.0,0.0,100,0.00,,,0.11,Wunderground v.1.15,2013-01-25 14:45:00,
2013-01-25 06:55:00,46.4,46.4,30.07,SSW,209,0.0,0.0,100,0.00,,,0.11,Wunderground v.1.15,2013-01-25 14:55:00,
2013-01-25 07:05:00,46.4,46.4,30.07,SSW,209,0.0,0.0,100,0.00,,,0.12,Wunderground v.1.15,2013-01-25 15:05:00,
2013-01-25 07:15:00,46.3,46.3,30.06,SSW,209,0.0,0.0,100,0.07,,,0.13,Wunderground v.1.15,2013-01-25 15:15:00,
2013-01-25 07:25:00,46.3,46.3,30.06,SSE,159,0.0,0.0,100,0.07,,,0.14,Wunderground v.1.15,2013-01-25 15:25:00,
2013-01-25 07:35:00,46.3,46.3,30.06,SSW,196,0.0,0.0,100,0.06,,,0.15,Wunderground v.1.15,2013-01-25 15:35:00,
2013-01-25 07:50:00,46.4,46.4,30.06,WSW,251,0.0,0.0,100,0.05,,,0.16,Wunderground v.1.15,2013-01-25 15:50:00,
2013-01-25 08:05:00,46.3,46.3,30.06,WSW,251,0.0,0.0,100,0.00,,,0.16,Wunderground v.1.15,2013-01-25 16:05:00,
2013-01-25 08:15:00,46.3,46.3,30.06,West,271,0.0,0.0,100,0.00,,,0.16,Wunderground v.1.15,2013-01-25 16:15:00,
2013-01-25 08:20:00,46.3,46.3,30.06,West,271,0.0,0.0,100,0.00,,,0.16,Wunderground v.1.15,2013-01-25 16:20:00,
2013-01-25 08:30:00,46.5,46.5,30.06,South,174,0.0,0.0,100,0.00,,,0.16,Wunderground v.1.15,2013-01-25 16:30:00,
2013-01-25 08:40:00,46.5,46.5,30.07,South,188,0.0,0.0,100,0.00,,,0.16,Wunderground v.1.15,2013-01-25 16:40:00,
2013-01-25 08:50:00,46.5,46.5,30.07,SSW,200,0.0,0.0,100,0.00,,,0.17,Wunderground v.1.15,2013-01-25 16:50:00,
2013-01-25 09:00:00,46.6,46.6,30.07,SSW,200,0.0,0.0,100,0.09,,,0.18,Wunderground v.1.15,2013-01-25 17:00:00,
2013-01-25 09:05:00,46.6,46.6,30.07,SSW,200,0.0,0.0,100,0.09,,,0.19,Wunderground v.1.15,2013-01-25 17:05:00,
2013-01-25 09:15:00,46.7,46.7,30.07,SSW,200,0.0,0.0,100,0.04,,,0.19,Wunderground v.1.15,2013-01-25 17:15:00,
2013-01-25 09:25:00,46.9,46.9,30.07,SSW,200,0.0,0.0,100,0.00,,,0.19,Wunderground v.1.15,2013-01-25 17:25:00,
2013-01-25 09:35:00,47.0,47.0,30.08,SSW,200,0.0,0.0,100,0.00,,,0.19,Wunderground v.1.15,2013-01-25 17:35:00,
2013-01-25 09:45:00,47.2,47.2,30.08,SSE,159,0.0,0.0,100,0.00,,,0.20,Wunderground v.1.15,2013-01-25 17:45:00,
2013-01-25 09:55:00,47.3,47.3,30.08,SSE,159,0.0,0.0,100,0.00,,,0.20,Wunderground v.1.15,2013-01-25 17:55:00,
2013-01-25 10:05:00,47.5,47.5,30.08,SSE,159,0.0,0.0,100,0.00,,,0.20,Wunderground v.1.15,2013-01-25 18:05:00,
2013-01-25 10:15:00,47.8,47.8,30.08,SSE,159,0.0,0.0,100,0.00,,,0.20,Wunderground v.1.15,2013-01-25 18:15:00,
2013-01-25 10:25:00,47.8,47.8,30.08,SSE,159,0.0,0.0,100,0.00,,,0.20,Wunderground v.1.15,2013-01-25 18:25:00,
2013-01-25 10:35:00,48.1,48.1,30.08,SSE,159,0.0,0.0,100,0.00,,,0.20,Wunderground v.1.15,2013-01-25 18:35:00,
2013-01-25 10:45:00,48.4,48.4,30.08,SSE,159,0.0,0.0,100,0.00,,,0.20,Wunderground v.1.15,2013-01-25 18:45:00,
2013-01-25 10:55:00,48.8,48.8,30.08,SSE,159,0.0,0.0,100,0.00,,,0.20,Wunderground v.1.15,2013-01-25 18:55:00,
2013-01-25 11:05:00,49.1,49.1,30.07,SSE,159,0.0,0.0,100,0.00,,,0.21,Wunderground v.1.15,2013-01-25 19:05:00,
2013-01-25 11:15:00,49.4,49.4,30.07,NW,315,0.0,1.0,100,0.00,,,0.21,Wunderground v.1.15,2013-01-25 19:15:00,
2013-01-25 11:20:00,49.3,49.3,30.06,NW,312,1.0,1.0,100,0.00,,,0.21,Wunderground v.1.15,2013-01-25 19:20:00,
2013-01-25 11:30:00,49.1,49.1,30.06,NW,312,0.0,1.0,100,0.00,,,0.21,Wunderground v.1.15,2013-01-25 19:30:00,
2013-01-25 11:40:00,49.1,49.1,30.06,WNW,296,0.0,0.0,100,0.00,,,0.21,Wunderground v.1.15,2013-01-25 19:40:00,
2013-01-25 11:45:00,49.1,49.1,30.06,WNW,296,0.0,0.0,100,0.00,,,0.21,Wunderground v.1.15,2013-01-25 19:45:00,
2013-01-25 11:55:00,49.1,49.1,30.06,WNW,296,0.0,0.0,100,0.00,,,0.21,Wunderground v.1.15,2013-01-25 19:55:00,
2013-01-25 12:05:00,49.4,49.4,30.05,WNW,296,0.0,0.0,100,0.00,,,0.21,Wunderground v.1.15,2013-01-25 20:05:00,
2013-01-25 12:15:00,49.6,49.6,30.05,WNW,296,0.0,0.0,100,0.00,,,0.22,Wunderground v.1.15,2013-01-25 20:15:00,
2013-01-25 12:25:00,49.8,49.8,30.04,WNW,296,0.0,0.0,100,0.00,,,0.22,Wunderground v.1.15,2013-01-25 20:25:00,
2013-01-25 12:35:00,50.2,50.2,30.04,WNW,296,0.0,0.0,100,0.00,,,0.22,Wunderground v.1.15,2013-01-25 20:35:00,
2013-01-25 12:45:00,50.6,50.6,30.03,WNW,296,0.0,0.0,100,0.00,,,0.22,Wunderground v.1.15,2013-01-25 20:45:00,
2013-01-25 12:55:00,51.0,51.0,30.03,NW,310,0.0,0.0,100,0.00,,,0.22,Wunderground v.1.15,2013-01-25 20:55:00,
2013-01-25 13:05:00,51.0,51.0,30.02,East,101,0.0,0.0,100,0.00,,,0.22,Wunderground v.1.15,2013-01-25 21:05:00,
2013-01-25 13:15:00,51.4,51.4,30.02,ENE,74,0.0,0.0,100,0.00,,,0.22,Wunderground v.1.15,2013-01-25 21:15:00,
2013-01-25 13:20:00,51.4,51.4,30.02,ENE,67,0.0,0.0,100,0.00,,,0.22,Wunderground v.1.15,2013-01-25 21:20:00,
2013-01-25 13:30:00,51.5,51.5,30.02,ENE,67,0.0,0.0,100,0.00,,,0.22,Wunderground v.1.15,2013-01-25 21:30:00,
2013-01-25 13:45:00,51.7,51.7,30.02,ENE,67,0.0,0.0,100,0.00,,,0.22,Wunderground v.1.15,2013-01-25 21:45:00,
2013-01-25 13:55:00,51.6,51.6,30.01,ESE,103,0.0,0.0,100,0.00,,,0.22,Wunderground v.1.15,2013-01-25 21:55:00,
2013-01-25 14:05:00,51.4,51.4,30.01,NE,36,0.0,0.0,100,0.00,,,0.22,Wunderground v.1.15,2013-01-25 22:05:00,
2013-01-25 14:15:00,51.4,51.4,30.01,East,92,1.0,1.0,100,0.00,,,0.22,Wunderground v.1.15,2013-01-25 22:15:00,
2013-01-25 14:30:00,51.2,51.2,30.00,East,87,0.0,1.0,100,0.00,,,0.22,Wunderground v.1.15,2013-01-25 22:30:00,
2013-01-25 14:40:00,51.2,51.2,30.00,NNE,31,0.0,0.0,100,0.00,,,0.22,Wunderground v.1.15,2013-01-25 22:40:00,
2013-01-25 14:45:00,51.2,51.2,30.01,NNE,20,0.0,2.0,100,0.00,,,0.23,Wunderground v.1.15,2013-01-25 22:45:00,
2013-01-25 14:55:00,51.0,51.0,30.01,North,9,1.0,2.0,100,0.00,,,0.23,Wunderground v.1.15,2013-01-25 22:55:00,
2013-01-25 15:05:00,51.0,51.0,30.00,ENE,65,0.0,0.0,100,0.00,,,0.23,Wunderground v.1.15,2013-01-25 23:05:00,
2013-01-25 15:11:00,51.1,51.1,30.00,North,10,0.0,0.0,100,0.00,,,0.23,Wunderground v.1.15,2013-01-25 23:11:00,
2013-01-25 15:20:00,51.2,51.2,30.00,ENE,69,0.0,0.0,100,0.00,,,0.23,Wunderground v.1.15,2013-01-25 23:20:00,
2013-01-25 15:30:00,51.2,51.2,30.00,ESE,106,0.0,1.0,100,0.00,,,0.23,Wunderground v.1.15,2013-01-25 23:30:00,
2013-01-25 15:40:00,51.3,51.3,30.00,East,88,0.0,0.0,100,0.00,,,0.23,Wunderground v.1.15,2013-01-25 23:40:00,
2013-01-25 15:50:00,51.2,50.9,30.00,NE,46,0.0,0.0,99,0.00,,,0.23,Wunderground v.1.15,2013-01-25 23:50:00,
2013-01-25 16:00:00,51.3,51.0,30.00,ESE,107,0.0,0.0,99,0.00,,,0.23,Wunderground v.1.15,2013-01-26 00:00:00,
2013-01-25 16:05:00,51.2,50.9,30.00,North,360,0.0,0.0,99,0.00,,,0.23,Wunderground v.1.15,2013-01-26 00:05:00,
2013-01-25 16:15:00,51.3,51.0,30.00,SE,125,0.0,0.0,99,0.00,,,0.23,Wunderground v.1.15,2013-01-26 00:15:00,
2013-01-25 16:25:00,51.0,50.7,30.00,NNE,13,0.0,0.0,99,0.00,,,0.23,Wunderground v.1.15,2013-01-26 00:25:00,
2013-01-25 16:40:00,51.0,50.7,30.00,NNE,17,0.0,0.0,99,0.00,,,0.23,Wunderground v.1.15,2013-01-26 00:40:00,
2013-01-25 16:50:00,50.7,50.4,30.00,WNW,302,1.0,2.0,99,0.00,,,0.23,Wunderground v.1.15,2013-01-26 00:50:00,
2013-01-25 16:55:00,50.5,50.0,30.00,NNE,26,1.0,2.0,98,0.00,,,0.23,Wunderground v.1.15,2013-01-26 00:55:00,
2013-01-25 17:05:00,50.2,49.7,30.00,NNE,26,0.0,0.0,98,0.00,,,0.23,Wunderground v.1.15,2013-01-26 01:05:00,
2013-01-25 17:15:00,49.9,49.4,30.00,NW,310,0.0,1.0,98,0.00,,,0.23,Wunderground v.1.15,2013-01-26 01:15:00,
2013-01-25 17:20:00,49.8,48.7,30.00,WNW,289,2.0,2.0,96,0.00,,,0.23,Wunderground v.1.15,2013-01-26 01:20:00,
2013-01-25 17:30:00,49.6,48.2,30.00,NNE,19,1.0,2.0,95,0.00,,,0.23,Wunderground v.1.15,2013-01-26 01:30:00,
2013-01-25 17:40:00,49.0,47.9,30.01,NNE,17,0.0,2.0,96,0.00,,,0.23,Wunderground v.1.15,2013-01-26 01:40:00,
2013-01-25 17:45:00,48.6,47.5,30.01,ESE,111,1.0,1.0,96,0.00,,,0.23,Wunderground v.1.15,2013-01-26 01:45:00,
2013-01-25 17:55:00,48.1,47.3,30.01,West,280,1.0,1.0,97,0.00,,,0.23,Wunderground v.1.15,2013-01-26 01:55:00,
2013-01-25 18:00:00,48.1,47.0,30.01,NE,56,1.0,1.0,96,0.00,,,0.23,Wunderground v.1.15,2013-01-26 02:00:00,
2013-01-25 18:05:00,47.9,46.8,30.01,NE,51,0.0,1.0,96,0.00,,,0.23,Wunderground v.1.15,2013-01-26 02:05:00,
2013-01-25 18:15:00,47.4,46.3,30.01,NE,51,0.0,0.0,96,0.00,,,0.23,Wunderground v.1.15,2013-01-26 02:15:00,
2013-01-25 18:25:00,46.8,46.0,30.01,SSW,196,0.0,0.0,97,0.00,,,0.23,Wunderground v.1.15,2013-01-26 02:25:00,
2013-01-25 18:35:00,46.5,45.7,30.01,South,175,0.0,0.0,97,0.00,,,0.23,Wunderground v.1.15,2013-01-26 02:35:00,
2013-01-25 18:40:00,46.3,45.5,30.01,SW,230,0.0,0.0,97,0.00,,,0.23,Wunderground v.1.15,2013-01-26 02:40:00,
2013-01-25 18:50:00,46.0,45.2,30.01,SW,228,0.0,0.0,97,0.00,,,0.23,Wunderground v.1.15,2013-01-26 02:50:00,
2013-01-25 19:05:00,45.6,45.1,30.01,NW,317,1.0,2.0,98,0.00,,,0.23,Wunderground v.1.15,2013-01-26 03:05:00,
2013-01-25 19:15:00,45.5,44.7,30.01,ESE,117,1.0,1.0,97,0.00,,,0.23,Wunderground v.1.15,2013-01-26 03:15:00,
2013-01-25 19:25:00,45.4,44.6,30.01,SW,223,0.0,2.0,97,0.00,,,0.23,Wunderground v.1.15,2013-01-26 03:25:00,
2013-01-25 19:30:00,45.6,44.8,30.01,SE,134,1.0,2.0,97,0.00,,,0.23,Wunderground v.1.15,2013-01-26 03:30:00,
2013-01-25 19:40:00,45.9,44.8,30.01,SSW,201,0.0,1.0,96,0.00,,,0.23,Wunderground v.1.15,2013-01-26 03:40:00,
2013-01-25 19:50:00,45.9,44.5,30.01,SSE,149,1.0,1.0,95,0.00,,,0.23,Wunderground v.1.15,2013-01-26 03:50:00,
2013-01-25 20:05:00,45.9,44.5,30.01,WSW,251,1.0,2.0,95,0.00,,,0.23,Wunderground v.1.15,2013-01-26 04:05:00,
2013-01-25 20:15:00,46.0,44.1,30.00,WSW,240,2.0,2.0,93,0.00,,,0.23,Wunderground v.1.15,2013-01-26 04:15:00,
2013-01-25 20:25:00,46.0,44.4,30.00,SSW,198,1.0,3.0,94,0.00,,,0.23,Wunderground v.1.15,2013-01-26 04:25:00,
2013-01-25 20:40:00,45.0,43.7,30.00,WSW,240,0.0,0.0,95,0.00,,,0.23,Wunderground v.1.15,2013-01-26 04:40:00,
2013-01-25 20:50:00,44.1,42.5,30.00,SSE,164,0.0,0.0,94,0.00,,,0.23,Wunderground v.1.15,2013-01-26 04:50:00,
2013-01-25 20:55:00,43.6,42.3,30.00,SSE,164,0.0,0.0,95,0.00,,,0.23,Wunderground v.1.15,2013-01-26 04:55:00,
2013-01-25 21:05:00,43.1,42.0,30.00,SSE,164,0.0,0.0,96,0.00,,,0.23,Wunderground v.1.15,2013-01-26 05:05:00,
2013-01-25 21:15:00,42.5,41.4,30.00,SSE,164,0.0,0.0,96,0.00,,,0.23,Wunderground v.1.15,2013-01-26 05:15:00,
2013-01-25 21:20:00,42.2,41.1,30.00,SSE,164,0.0,0.0,96,0.00,,,0.24,Wunderground v.1.15,2013-01-26 05:20:00,
2013-01-25 21:30:00,41.9,41.1,30.00,SSE,164,0.0,0.0,97,0.00,,,0.24,Wunderground v.1.15,2013-01-26 05:30:00,
2013-01-25 21:40:00,41.6,41.1,30.00,SSE,164,0.0,0.0,98,0.00,,,0.24,Wunderground v.1.15,2013-01-26 05:40:00,
2013-01-25 21:50:00,40.8,40.0,30.00,SSE,164,0.0,0.0,97,0.00,,,0.24,Wunderground v.1.15,2013-01-26 05:50:00,
2013-01-25 21:55:00,40.4,39.6,30.00,SSW,213,0.0,0.0,97,0.00,,,0.24,Wunderground v.1.15,2013-01-26 05:55:00,
2013-01-25 22:05:00,39.8,39.0,30.01,SSW,213,0.0,0.0,97,0.00,,,0.24,Wunderground v.1.15,2013-01-26 06:05:00,
2013-01-25 22:11:00,39.5,38.7,30.01,SSW,213,0.0,0.0,97,0.00,,,0.24,Wunderground v.1.15,2013-01-26 06:11:00,
2013-01-25 22:20:00,38.9,38.1,30.01,SSW,213,0.0,0.0,97,0.00,,,0.24,Wunderground v.1.15,2013-01-26 06:20:00,
2013-01-25 22:30:00,38.2,37.4,30.01,SSW,213,0.0,0.0,97,0.00,,,0.24,Wunderground v.1.15,2013-01-26 06:30:00,
2013-01-25 22:40:00,37.9,37.4,30.01,SSW,213,0.0,0.0,98,0.00,,,0.24,Wunderground v.1.15,2013-01-26 06:40:00,
2013-01-25 22:50:00,37.8,37.3,30.01,SSW,213,0.0,0.0,98,0.00,,,0.24,Wunderground v.1.15,2013-01-26 06:50:00,
2013-01-25 22:55:00,37.7,37.2,30.01,SSW,213,0.0,0.0,98,0.00,,,0.24,Wunderground v.1.15,2013-01-26 06:55:00,
2013-01-25 23:01:00,37.6,37.1,30.01,SSW,213,0.0,0.0,98,0.00,,,0.24,Wunderground v.1.15,2013-01-26 07:01:00,
2013-01-25 23:10:00,37.2,36.7,30.01,SSW,213,0.0,0.0,98,0.00,,,0.24,Wunderground v.1.15,2013-01-26 07:10:00,
2013-01-25 23:20:00,37.0,36.5,30.02,SSW,213,0.0,0.0,98,0.00,,,0.24,Wunderground v.1.15,2013-01-26 07:20:00,
2013-01-25 23:25:00,36.8,36.3,30.02,SSW,213,0.0,0.0,98,0.00,,,0.24,Wunderground v.1.15,2013-01-26 07:25:00,
2013-01-25 23:35:00,36.7,36.2,30.02,SSW,213,0.0,0.0,98,0.00,,,0.24,Wunderground v.1.15,2013-01-26 07:35:00,
2013-01-25 23:50:00,36.8,36.5,30.02,SSW,213,0.0,0.0,99,0.00,,,0.24,Wunderground v.1.15,2013-01-26 07:50:00,